createdAt,value
2018-09-03T00:00:21.229Z,14.93
2018-09-03T00:02:51.689Z,14.93
2018-09-03T00:05:20.598Z,14.93
2018-09-03T00:07:49.514Z,14.93
2018-09-03T00:10:18.690Z,14.94
2018-09-03T00:12:47.618Z,14.94
2018-09-03T00:15:16.695Z,14.92
2018-09-03T00:17:45.543Z,14.92
2018-09-03T00:20:14.744Z,14.95
2018-09-03T00:22:43.873Z,14.94
2018-09-03T00:25:12.735Z,14.94
2018-09-03T00:27:43.294Z,14.95
2018-09-03T00:30:12.523Z,14.95
2018-09-03T00:32:46.736Z,14.94
2018-09-03T00:35:20.825Z,14.96
2018-09-03T00:37:55.017Z,14.96
2018-09-03T00:40:29.077Z,14.98
2018-09-03T00:43:03.184Z,14.97
2018-09-03T00:45:37.098Z,14.93
2018-09-03T00:48:07.422Z,14.90
2018-09-03T00:50:36.185Z,14.89
2018-09-03T00:53:05.434Z,14.88
2018-09-03T00:55:34.155Z,14.90
2018-09-03T00:58:03.868Z,14.90
2018-09-03T01:00:32.780Z,14.91
2018-09-03T01:03:01.846Z,14.92
2018-09-03T01:05:31.079Z,14.92
2018-09-03T01:07:59.841Z,14.94
2018-09-03T01:10:28.619Z,14.95
2018-09-03T01:12:57.549Z,14.94
2018-09-03T01:15:29.713Z,14.92
2018-09-03T01:18:01.148Z,14.93
2018-09-03T01:20:30.173Z,14.91
2018-09-03T01:22:59.439Z,14.93
2018-09-03T01:25:28.274Z,14.93
2018-09-03T01:27:58.633Z,14.94
2018-09-03T01:30:28.935Z,14.94
2018-09-03T01:32:57.920Z,14.93
2018-09-03T01:35:26.548Z,14.91
2018-09-03T01:37:55.376Z,14.87
2018-09-03T01:40:24.019Z,14.86
2018-09-03T01:42:53.318Z,14.86
2018-09-03T01:45:22.672Z,14.88
2018-09-03T01:47:52.483Z,14.90
2018-09-03T01:50:21.683Z,14.91
2018-09-03T01:52:50.946Z,14.92
2018-09-03T01:55:19.772Z,14.93
2018-09-03T01:57:48.464Z,14.93
2018-09-03T02:00:17.698Z,14.93
2018-09-03T02:02:47.095Z,14.92
2018-09-03T02:05:16.480Z,14.87
2018-09-03T02:07:45.315Z,14.84
2018-09-03T02:10:14.119Z,14.82
2018-09-03T02:12:42.875Z,14.79
2018-09-03T02:15:11.671Z,14.74
2018-09-03T02:17:41.283Z,14.71
2018-09-03T02:20:10.114Z,14.70
2018-09-03T02:22:39.650Z,14.71
2018-09-03T02:25:08.558Z,14.72
2018-09-03T02:27:38.047Z,14.71
2018-09-03T02:30:07.096Z,14.72
2018-09-03T02:32:36.630Z,14.74
2018-09-03T02:35:05.458Z,14.78
2018-09-03T02:37:34.971Z,14.79
2018-09-03T02:40:05.140Z,14.78
2018-09-03T02:42:33.901Z,14.78
2018-09-03T02:45:02.719Z,14.77
2018-09-03T02:47:31.778Z,14.77
2018-09-03T02:50:01.566Z,14.76
2018-09-03T02:52:30.387Z,14.76
2018-09-03T02:54:59.833Z,14.77
2018-09-03T02:57:29.982Z,14.80
2018-09-03T03:00:00.054Z,14.81
2018-09-03T03:02:29.179Z,14.82
2018-09-03T03:04:58.060Z,14.83
2018-09-03T03:07:26.954Z,14.82
2018-09-03T03:09:55.824Z,14.83
2018-09-03T03:12:25.799Z,14.84
2018-09-03T03:14:56.470Z,14.83
2018-09-03T03:17:25.524Z,14.81
2018-09-03T03:19:54.388Z,14.82
2018-09-03T03:22:23.953Z,14.79
2018-09-03T03:24:53.520Z,14.78
2018-09-03T03:27:22.573Z,14.77
2018-09-03T03:29:51.415Z,14.76
2018-09-03T03:32:20.494Z,14.75
2018-09-03T03:34:51.016Z,14.74
2018-09-03T03:37:20.936Z,14.76
2018-09-03T03:39:49.829Z,14.78
2018-09-03T03:42:18.796Z,14.81
2018-09-03T03:44:48.369Z,14.80
2018-09-03T03:47:17.180Z,14.78
2018-09-03T03:49:48.230Z,14.78
2018-09-03T03:52:17.655Z,14.79
2018-09-03T03:54:46.769Z,14.75
2018-09-03T03:57:15.473Z,14.77
2018-09-03T03:59:44.271Z,14.77
2018-09-03T04:02:13.406Z,14.79
2018-09-03T04:04:42.623Z,14.80
2018-09-03T04:07:11.429Z,14.81
2018-09-03T04:09:40.157Z,14.82
2018-09-03T04:12:09.180Z,14.82
2018-09-03T04:14:38.605Z,14.83
2018-09-03T04:17:07.939Z,14.82
2018-09-03T04:19:36.906Z,14.81
2018-09-03T04:22:05.957Z,14.80
2018-09-03T04:24:34.659Z,14.82
2018-09-03T04:27:03.656Z,14.83
2018-09-03T04:29:33.071Z,14.83
2018-09-03T04:32:04.886Z,14.83
2018-09-03T04:34:34.419Z,14.83
2018-09-03T04:37:03.488Z,14.84
2018-09-03T04:39:32.556Z,14.85
2018-09-03T04:42:01.186Z,14.85
2018-09-03T04:44:30.796Z,14.85
2018-09-03T04:47:01.636Z,14.84
2018-09-03T04:49:30.706Z,14.82
2018-09-03T04:52:00.852Z,14.83
2018-09-03T04:54:29.826Z,14.84
2018-09-03T04:56:58.540Z,14.83
2018-09-03T04:59:27.537Z,14.82
2018-09-03T05:01:57.008Z,14.83
2018-09-03T05:04:25.645Z,14.81
2018-09-03T05:06:55.195Z,14.82
2018-09-03T05:09:24.415Z,14.83
2018-09-03T05:11:53.292Z,14.83
2018-09-03T05:14:22.725Z,14.85
2018-09-03T05:16:52.271Z,14.88
2018-09-03T05:19:21.680Z,14.92
2018-09-03T05:21:50.604Z,14.93
2018-09-03T05:24:19.455Z,14.96
2018-09-03T05:26:49.114Z,14.99
2018-09-03T05:29:18.332Z,15.01
2018-09-03T05:31:47.388Z,15.03
2018-09-03T05:34:17.191Z,15.07
2018-09-03T05:36:46.425Z,15.07
2018-09-03T05:39:15.139Z,15.11
2018-09-03T05:41:44.365Z,15.14
2018-09-03T05:44:13.338Z,15.19
2018-09-03T05:46:42.875Z,15.22
2018-09-03T05:49:11.595Z,15.23
2018-09-03T05:51:40.434Z,15.24
2018-09-03T05:54:09.442Z,15.25
2018-09-03T05:56:38.380Z,15.27
2018-09-03T05:59:07.527Z,15.30
2018-09-03T06:01:36.385Z,15.32
2018-09-03T06:04:06.886Z,15.35
2018-09-03T06:06:36.237Z,15.36
2018-09-03T06:09:06.770Z,15.41
2018-09-03T06:11:35.691Z,15.46
2018-09-03T06:14:04.441Z,15.51
2018-09-03T06:16:33.396Z,15.57
2018-09-03T06:19:02.265Z,15.61
2018-09-03T06:21:31.041Z,15.70
2018-09-03T06:23:59.742Z,15.77
2018-09-03T06:26:30.010Z,15.86
2018-09-03T06:28:59.582Z,15.91
2018-09-03T06:31:28.774Z,16.03
2018-09-03T06:33:58.525Z,16.19
2018-09-03T06:36:27.216Z,16.32
2018-09-03T06:38:57.006Z,16.41
2018-09-03T06:41:26.575Z,16.49
2018-09-03T06:43:56.189Z,16.59
2018-09-03T06:46:25.107Z,16.67
2018-09-03T06:48:53.925Z,16.66
2018-09-03T06:51:23.465Z,16.67
2018-09-03T06:53:52.839Z,16.62
2018-09-03T06:56:22.066Z,16.48
2018-09-03T06:58:51.474Z,16.58
2018-09-03T07:01:20.494Z,16.60
2018-09-03T07:03:49.621Z,16.55
2018-09-03T07:06:18.995Z,16.55
2018-09-03T07:08:48.176Z,16.63
2018-09-03T07:11:17.452Z,16.59
2018-09-03T07:13:46.531Z,16.49
2018-09-03T07:16:15.924Z,16.57
2018-09-03T07:18:45.018Z,16.64
2018-09-03T07:21:14.162Z,16.75
2018-09-03T07:23:42.987Z,16.83
2018-09-03T07:26:12.517Z,16.85
2018-09-03T07:28:44.157Z,16.91
2018-09-03T07:31:13.989Z,16.96
2018-09-03T07:33:42.825Z,17.05
2018-09-03T07:36:13.524Z,17.17
2018-09-03T07:38:42.522Z,17.28
2018-09-03T07:41:11.817Z,17.34
2018-09-03T07:43:41.081Z,17.23
2018-09-03T07:46:10.801Z,17.18
2018-09-03T07:48:39.558Z,17.32
2018-09-03T07:51:08.853Z,17.52
2018-09-03T07:53:37.742Z,17.58
2018-09-03T07:56:08.354Z,17.56
2018-09-03T07:58:37.425Z,17.57
2018-09-03T08:01:06.608Z,17.56
2018-09-03T08:03:36.141Z,17.56
2018-09-03T08:06:05.206Z,17.46
2018-09-03T08:08:33.887Z,17.32
2018-09-03T08:11:03.543Z,17.21
2018-09-03T08:13:41.037Z,17.29
2018-09-03T08:16:10.642Z,17.24
2018-09-03T08:18:40.193Z,17.11
2018-09-03T08:21:09.169Z,17.02
2018-09-03T08:23:38.389Z,16.81
2018-09-03T08:26:07.637Z,16.82
2018-09-03T08:28:36.903Z,16.81
2018-09-03T08:31:06.210Z,16.82
2018-09-03T08:33:35.078Z,16.92
2018-09-03T08:36:03.953Z,17.07
2018-09-03T08:38:32.779Z,17.27
2018-09-03T08:41:02.446Z,17.40
2018-09-03T08:43:31.456Z,17.60
2018-09-03T08:46:00.416Z,17.68
2018-09-03T08:48:29.695Z,17.66
2018-09-03T08:50:58.542Z,17.85
2018-09-03T08:53:28.131Z,18.13
2018-09-03T08:55:56.886Z,18.29
2018-09-03T08:58:25.815Z,18.60
2018-09-03T09:00:54.847Z,18.66
2018-09-03T09:03:28.837Z,18.69
2018-09-03T09:05:57.810Z,18.80
2018-09-03T09:08:26.751Z,18.72
2018-09-03T09:10:55.758Z,18.49
2018-09-03T09:13:24.451Z,18.44
2018-09-03T09:15:53.356Z,18.22
2018-09-03T09:18:22.306Z,18.25
2018-09-03T09:20:52.021Z,18.27
2018-09-03T09:23:20.837Z,18.11
2018-09-03T09:25:49.801Z,18.27
2018-09-03T09:28:19.052Z,18.37
2018-09-03T09:30:48.478Z,18.45
2018-09-03T09:33:18.192Z,18.55
2018-09-03T09:35:47.822Z,18.68
2018-09-03T09:38:17.152Z,18.52
2018-09-03T09:40:46.102Z,18.60
2018-09-03T09:43:15.613Z,18.71
2018-09-03T09:45:44.618Z,18.75
2018-09-03T09:48:13.514Z,18.79
2018-09-03T09:50:43.178Z,18.71
2018-09-03T09:53:12.339Z,18.63
2018-09-03T09:55:41.467Z,18.43
2018-09-03T09:58:10.752Z,18.42
2018-09-03T10:00:44.798Z,18.34
2018-09-03T10:03:13.692Z,18.25
2018-09-03T10:05:43.607Z,18.22
2018-09-03T10:08:13.227Z,18.18
2018-09-03T10:10:41.902Z,18.13
2018-09-03T10:13:10.934Z,18.13
2018-09-03T10:15:40.160Z,18.10
2018-09-03T10:18:08.977Z,18.15
2018-09-03T10:20:37.812Z,18.17
2018-09-03T10:23:06.867Z,18.17
2018-09-03T10:25:36.392Z,18.10
2018-09-03T10:28:06.238Z,18.12
2018-09-03T10:30:35.197Z,18.19
2018-09-03T10:33:04.953Z,18.21
2018-09-03T10:35:33.908Z,18.31
2018-09-03T10:38:03.072Z,18.36
2018-09-03T10:40:32.224Z,18.38
2018-09-03T10:43:01.683Z,18.38
2018-09-03T10:45:30.519Z,18.57
2018-09-03T10:47:59.252Z,18.77
2018-09-03T10:50:28.364Z,18.80
2018-09-03T10:52:57.535Z,19.09
2018-09-03T10:55:26.777Z,19.30
2018-09-03T10:57:55.853Z,19.63
2018-09-03T11:00:25.302Z,19.70
2018-09-03T11:02:54.602Z,19.82
2018-09-03T11:05:23.528Z,19.99
2018-09-03T11:07:52.163Z,20.07
2018-09-03T11:10:20.832Z,20.13
2018-09-03T11:12:49.667Z,20.35
2018-09-03T11:15:19.862Z,20.49
2018-09-03T11:17:49.766Z,20.68
2018-09-03T11:20:24.076Z,21.02
2018-09-03T11:22:53.046Z,21.03
2018-09-03T11:25:22.919Z,20.62
2018-09-03T11:27:53.658Z,20.51
2018-09-03T11:30:23.088Z,20.54
2018-09-03T11:33:03.598Z,20.39
2018-09-03T11:35:32.434Z,20.42
2018-09-03T11:38:01.121Z,20.49
2018-09-03T11:40:30.321Z,20.42
2018-09-03T11:42:59.453Z,20.41
2018-09-03T11:45:28.848Z,20.37
2018-09-03T11:47:57.619Z,20.20
2018-09-03T11:50:27.133Z,20.14
2018-09-03T11:52:58.086Z,20.06
2018-09-03T11:55:27.054Z,20.03
2018-09-03T11:57:55.924Z,20.02
2018-09-03T12:00:27.729Z,19.95
2018-09-03T12:02:57.504Z,20.03
2018-09-03T12:05:27.761Z,20.24
2018-09-03T12:07:56.674Z,20.40
2018-09-03T12:10:25.448Z,20.56
2018-09-03T12:12:55.064Z,20.75
2018-09-03T12:15:33.133Z,20.82
2018-09-03T12:18:02.325Z,20.85
2018-09-03T12:20:31.421Z,20.85
2018-09-03T12:23:01.028Z,20.93
2018-09-03T12:25:30.282Z,21.03
2018-09-03T12:27:59.371Z,20.71
2018-09-03T12:30:29.009Z,20.75
2018-09-03T12:32:58.510Z,21.06
2018-09-03T12:35:27.412Z,21.31
2018-09-03T12:37:56.217Z,21.40
2018-09-03T12:40:25.185Z,21.57
2018-09-03T12:42:53.949Z,21.38
2018-09-03T12:45:29.039Z,21.71
2018-09-03T12:47:58.087Z,22.11
2018-09-03T12:50:28.083Z,21.96
2018-09-03T12:52:57.267Z,22.00
2018-09-03T12:55:27.783Z,21.87
2018-09-03T12:57:56.917Z,21.76
2018-09-03T13:00:25.859Z,21.47
2018-09-03T13:02:54.767Z,21.21
2018-09-03T13:05:23.523Z,21.04
2018-09-03T13:07:52.497Z,21.17
2018-09-03T13:10:22.761Z,21.25
2018-09-03T13:12:52.002Z,21.39
2018-09-03T13:15:20.823Z,21.76
2018-09-03T13:17:49.589Z,22.84
2018-09-03T13:20:18.327Z,24.55
2018-09-03T13:22:47.104Z,25.94
2018-09-03T13:25:17.176Z,25.59
2018-09-03T13:27:46.346Z,25.21
2018-09-03T13:30:15.618Z,25.99
2018-09-03T13:32:44.821Z,26.25
2018-09-03T13:35:13.656Z,26.99
2018-09-03T13:37:43.114Z,27.48
2018-09-03T13:40:12.395Z,27.68
2018-09-03T13:42:42.004Z,27.48
2018-09-03T13:45:11.516Z,27.01
2018-09-03T13:47:41.094Z,27.21
2018-09-03T13:50:10.726Z,27.69
2018-09-03T13:52:39.643Z,26.87
2018-09-03T13:55:09.063Z,27.55
2018-09-03T13:57:38.100Z,27.90
2018-09-03T14:00:09.092Z,28.41
2018-09-03T14:02:38.292Z,27.82
2018-09-03T14:05:08.020Z,28.09
2018-09-03T14:07:36.967Z,28.09
2018-09-03T14:10:06.697Z,28.06
2018-09-03T14:12:35.471Z,27.73
2018-09-03T14:15:04.598Z,27.04
2018-09-03T14:17:33.845Z,25.74
2018-09-03T14:20:03.310Z,25.75
2018-09-03T14:22:32.862Z,25.35
2018-09-03T14:25:01.754Z,24.99
2018-09-03T14:27:30.650Z,24.05
2018-09-03T14:30:00.158Z,24.15
2018-09-03T14:32:29.161Z,23.88
2018-09-03T14:34:58.364Z,23.93
2018-09-03T14:37:27.528Z,23.51
2018-09-03T14:39:57.098Z,23.32
2018-09-03T14:42:26.017Z,23.50
2018-09-03T14:44:54.810Z,23.73
2018-09-03T14:47:25.028Z,23.66
2018-09-03T14:49:53.849Z,23.44
2018-09-03T14:52:22.997Z,23.61
2018-09-03T14:54:51.937Z,23.62
2018-09-03T14:57:20.916Z,23.00
2018-09-03T14:59:50.549Z,23.17
2018-09-03T15:02:19.805Z,23.43
2018-09-03T15:04:48.720Z,23.68
2018-09-03T15:07:17.504Z,23.83
2018-09-03T15:09:46.473Z,23.80
2018-09-03T15:12:15.468Z,23.90
2018-09-03T15:14:44.182Z,23.80
2018-09-03T15:17:13.122Z,23.58
2018-09-03T15:19:42.700Z,23.58
2018-09-03T15:22:11.559Z,23.55
2018-09-03T15:24:40.357Z,23.28
2018-09-03T15:27:09.072Z,23.06
2018-09-03T15:29:37.946Z,23.07
2018-09-03T15:32:06.988Z,23.01
2018-09-03T15:34:35.765Z,22.65
2018-09-03T15:37:04.517Z,22.65
2018-09-03T15:39:36.229Z,22.20
2018-09-03T15:42:07.456Z,22.12
2018-09-03T15:44:38.083Z,22.03
2018-09-03T15:47:08.249Z,21.52
2018-09-03T15:49:37.070Z,21.29
2018-09-03T15:52:06.217Z,21.11
2018-09-03T15:54:35.265Z,21.15
2018-09-03T15:57:04.327Z,20.92
2018-09-03T15:59:33.281Z,20.75
2018-09-03T16:02:02.232Z,20.79
2018-09-03T16:04:31.208Z,20.77
2018-09-03T16:07:00.408Z,20.87
2018-09-03T16:09:29.263Z,20.74
2018-09-03T16:11:58.851Z,20.59
2018-09-03T16:14:28.208Z,20.79
2018-09-03T16:16:57.367Z,20.88
2018-09-03T16:19:26.509Z,20.90
2018-09-03T16:21:55.579Z,20.99
2018-09-03T16:24:24.311Z,21.01
2018-09-03T16:26:53.297Z,21.02
2018-09-03T16:29:22.670Z,20.83
2018-09-03T16:31:52.413Z,20.84
2018-09-03T16:34:21.305Z,20.84
2018-09-03T16:36:50.396Z,20.99
2018-09-03T16:39:19.358Z,20.83
2018-09-03T16:41:49.562Z,20.82
2018-09-03T16:44:18.679Z,20.68
2018-09-03T16:46:47.635Z,20.67
2018-09-03T16:49:16.424Z,20.68
2018-09-03T16:51:45.494Z,20.48
2018-09-03T16:54:14.568Z,20.36
2018-09-03T16:56:44.343Z,20.28
2018-09-03T16:59:14.027Z,20.27
2018-09-03T17:01:43.013Z,20.21
2018-09-03T17:04:12.727Z,20.14
2018-09-03T17:06:41.701Z,20.14
2018-09-03T17:09:11.192Z,20.04
2018-09-03T17:11:41.263Z,19.91
2018-09-03T17:14:10.400Z,19.78
2018-09-03T17:16:39.754Z,19.72
2018-09-03T17:19:09.520Z,19.68
2018-09-03T17:21:40.196Z,19.54
2018-09-03T17:24:09.405Z,19.53
2018-09-03T17:26:38.561Z,19.19
2018-09-03T17:29:08.456Z,18.99
2018-09-03T17:31:37.893Z,18.78
2018-09-03T17:34:07.770Z,18.69
2018-09-03T17:36:37.658Z,18.48
2018-09-03T17:39:07.953Z,18.39
2018-09-03T17:41:36.898Z,18.25
2018-09-03T17:44:05.704Z,18.12
2018-09-03T17:46:35.245Z,18.00
2018-09-03T17:49:04.742Z,17.94
2018-09-03T17:51:33.600Z,17.79
2018-09-03T17:54:02.611Z,17.64
2018-09-03T17:56:31.348Z,17.56
2018-09-03T17:59:00.468Z,17.48
2018-09-03T18:01:30.498Z,17.45
2018-09-03T18:03:59.744Z,17.31
2018-09-03T18:06:28.972Z,17.18
2018-09-03T18:08:57.830Z,17.11
2018-09-03T18:11:26.708Z,16.94
2018-09-03T18:13:55.945Z,16.85
2018-09-03T18:16:25.974Z,16.75
2018-09-03T18:18:55.108Z,16.70
2018-09-03T18:21:24.284Z,16.77
2018-09-03T18:23:53.666Z,16.73
2018-09-03T18:26:23.019Z,16.65
2018-09-03T18:28:51.919Z,16.56
2018-09-03T18:31:20.911Z,16.39
2018-09-03T18:33:51.349Z,16.23
2018-09-03T18:36:20.929Z,16.12
2018-09-03T18:38:50.216Z,16.11
2018-09-03T18:41:19.465Z,16.03
2018-09-03T18:43:49.935Z,15.92
2018-09-03T18:46:18.921Z,15.81
2018-09-03T18:48:48.078Z,15.77
2018-09-03T18:51:17.174Z,15.69
2018-09-03T18:53:46.223Z,15.67
2018-09-03T18:56:15.479Z,15.72
2018-09-03T18:58:44.910Z,15.67
2018-09-03T19:01:15.065Z,15.56
2018-09-03T19:03:44.024Z,15.42
2018-09-03T19:06:14.029Z,15.37
2018-09-03T19:08:44.141Z,15.36
2018-09-03T19:11:14.109Z,15.31
2018-09-03T19:13:43.018Z,15.26
2018-09-03T19:16:12.095Z,15.28
2018-09-03T19:18:41.463Z,15.30
2018-09-03T19:21:10.826Z,15.24
2018-09-03T19:23:41.099Z,15.15
2018-09-03T19:26:10.144Z,15.14
2018-09-03T19:28:39.596Z,14.94
2018-09-03T19:31:09.636Z,14.92
2018-09-03T19:33:39.817Z,14.86
2018-09-03T19:36:09.802Z,14.83
2018-09-03T19:38:39.161Z,14.82
2018-09-03T19:41:08.869Z,14.78
2018-09-03T19:43:37.818Z,14.74
2018-09-03T19:46:06.726Z,14.68
2018-09-03T19:48:35.852Z,14.68
2018-09-03T19:51:06.109Z,14.63
2018-09-03T19:53:36.937Z,14.63
2018-09-03T19:56:06.078Z,14.63
2018-09-03T19:58:36.804Z,14.63
2018-09-03T20:01:07.114Z,14.52
2018-09-03T20:03:36.114Z,14.49
2018-09-03T20:06:05.022Z,14.46
2018-09-03T20:08:34.344Z,14.48
2018-09-03T20:11:04.055Z,14.54
2018-09-03T20:13:34.195Z,14.48
2018-09-03T20:16:04.426Z,14.42
2018-09-03T20:18:33.460Z,14.40
2018-09-03T20:21:02.794Z,14.41
2018-09-03T20:23:32.211Z,14.44
2018-09-03T20:26:01.154Z,14.47
2018-09-03T20:28:31.218Z,14.46
2018-09-03T20:31:00.618Z,14.46
2018-09-03T20:33:29.357Z,14.50
2018-09-03T20:35:59.091Z,14.54
2018-09-03T20:38:28.135Z,14.58
2018-09-03T20:40:57.471Z,14.63
2018-09-03T20:43:27.485Z,14.65
2018-09-03T20:45:57.409Z,14.67
2018-09-03T20:48:27.079Z,14.67
2018-09-03T20:50:57.087Z,14.64
2018-09-03T20:53:25.738Z,14.66
2018-09-03T20:55:56.349Z,14.65
2018-09-03T20:58:25.957Z,14.63
2018-09-03T21:00:55.808Z,14.66
2018-09-03T21:03:24.515Z,14.66
2018-09-03T21:05:53.520Z,14.62
2018-09-03T21:08:22.756Z,14.57
2018-09-03T21:10:51.593Z,14.53
2018-09-03T21:13:20.409Z,14.52
2018-09-03T21:15:49.411Z,14.49
2018-09-03T21:18:18.274Z,14.46
2018-09-03T21:20:46.998Z,14.41
2018-09-03T21:23:16.694Z,14.36
2018-09-03T21:25:47.126Z,14.33
2018-09-03T21:28:16.209Z,14.33
2018-09-03T21:30:45.095Z,14.29
2018-09-03T21:33:13.873Z,14.20
2018-09-03T21:35:43.180Z,14.10
2018-09-03T21:38:14.514Z,14.06
2018-09-03T21:40:43.618Z,14.01
2018-09-03T21:43:13.005Z,14.01
2018-09-03T21:45:42.101Z,13.96
2018-09-03T21:48:11.272Z,13.94
2018-09-03T21:50:40.087Z,13.89
2018-09-03T21:53:09.614Z,13.87
2018-09-03T21:55:38.621Z,13.90
2018-09-03T21:58:08.165Z,13.85
2018-09-03T22:00:37.224Z,13.74
2018-09-03T22:03:07.360Z,13.66
2018-09-03T22:05:37.084Z,13.58
2018-09-03T22:08:06.377Z,13.54
2018-09-03T22:10:35.234Z,13.50
2018-09-03T22:13:04.132Z,13.50
2018-09-03T22:15:32.969Z,13.40
2018-09-03T22:18:03.800Z,13.40
2018-09-03T22:20:32.906Z,13.37
2018-09-03T22:23:02.341Z,13.29
2018-09-03T22:25:31.533Z,13.25
2018-09-03T22:28:00.421Z,13.21
2018-09-03T22:30:29.572Z,13.21
2018-09-03T22:32:58.572Z,13.15
2018-09-03T22:35:27.842Z,13.15
2018-09-03T22:37:56.687Z,13.12
2018-09-03T22:40:25.545Z,13.01
2018-09-03T22:42:55.178Z,12.92
2018-09-03T22:45:24.282Z,12.86
2018-09-03T22:47:53.521Z,12.86
2018-09-03T22:50:23.080Z,12.81
2018-09-03T22:52:52.546Z,12.72
2018-09-03T22:55:26.536Z,12.70
2018-09-03T22:57:55.332Z,12.66
2018-09-03T23:00:25.740Z,12.64
2018-09-03T23:02:54.630Z,12.61
2018-09-03T23:05:23.603Z,12.58
2018-09-03T23:07:53.127Z,12.64
2018-09-03T23:10:21.800Z,12.63
2018-09-03T23:12:50.641Z,12.60
2018-09-03T23:15:19.851Z,12.57
2018-09-03T23:17:49.021Z,12.57
2018-09-03T23:20:17.895Z,12.51
2018-09-03T23:22:47.606Z,12.48
2018-09-03T23:25:16.408Z,12.41
2018-09-03T23:27:45.260Z,12.42
2018-09-03T23:30:14.146Z,12.42
2018-09-03T23:32:43.033Z,12.32
2018-09-03T23:35:11.641Z,12.33
2018-09-03T23:37:41.069Z,12.29
2018-09-03T23:40:10.723Z,12.28
2018-09-03T23:42:40.606Z,12.35
2018-09-03T23:45:09.607Z,12.43
2018-09-03T23:47:40.430Z,12.42
2018-09-03T23:50:09.201Z,12.36
2018-09-03T23:52:38.835Z,12.31
2018-09-03T23:55:07.535Z,12.26
2018-09-03T23:57:36.315Z,12.26
